createdAt,value
2022-11-16T00:01:48.867Z,6.10
2022-11-16T00:04:16.306Z,6.00
2022-11-16T00:06:43.654Z,6.10
2022-11-16T00:09:24.189Z,6.10
2022-11-16T00:11:57.201Z,6.10
2022-11-16T00:14:27.467Z,6.00
2022-11-16T00:16:54.874Z,6.00
2022-11-16T00:19:22.552Z,6.00
2022-11-16T00:21:49.853Z,6.10
2022-11-16T00:24:19.981Z,6.00
2022-11-16T00:26:47.850Z,5.90
2022-11-16T00:29:19.270Z,5.90
2022-11-16T00:31:48.969Z,5.90
2022-11-16T00:34:17.162Z,6.00
2022-11-16T00:36:44.824Z,6.00
2022-11-16T00:39:14.193Z,6.00
2022-11-16T00:41:42.438Z,6.00
2022-11-16T00:44:11.070Z,6.10
2022-11-16T00:46:38.185Z,6.00
2022-11-16T00:49:06.033Z,6.00
2022-11-16T00:51:34.767Z,6.00
2022-11-16T00:54:03.107Z,6.00
2022-11-16T00:56:30.107Z,6.00
2022-11-16T00:58:57.466Z,6.00
2022-11-16T01:01:24.646Z,6.00
2022-11-16T01:03:52.240Z,6.00
2022-11-16T01:06:20.321Z,6.00
2022-11-16T01:08:48.149Z,6.00
2022-11-16T01:11:35.158Z,6.10
2022-11-16T01:14:05.087Z,6.10
2022-11-16T01:16:32.381Z,6.00
2022-11-16T01:19:00.608Z,6.00
2022-11-16T01:21:27.808Z,6.00
2022-11-16T01:23:57.160Z,6.00
2022-11-16T01:26:24.730Z,6.00
2022-11-16T01:28:52.803Z,6.00
2022-11-16T01:31:20.562Z,6.00
2022-11-16T01:33:47.899Z,6.00
2022-11-16T01:36:15.755Z,6.00
2022-11-16T01:38:45.788Z,6.00
2022-11-16T01:41:21.869Z,6.00
2022-11-16T01:43:58.881Z,5.90
2022-11-16T01:46:27.157Z,6.00
2022-11-16T01:49:16.785Z,6.00
2022-11-16T01:51:51.216Z,6.00
2022-11-16T01:54:19.386Z,5.90
2022-11-16T01:56:49.013Z,5.90
2022-11-16T01:59:17.884Z,5.90
2022-11-16T02:01:44.848Z,5.90
2022-11-16T02:04:13.229Z,5.90
2022-11-16T02:07:08.182Z,5.90
2022-11-16T02:10:04.240Z,5.90
2022-11-16T02:12:49.341Z,5.90
2022-11-16T02:15:36.403Z,5.90
2022-11-16T02:18:06.697Z,5.90
2022-11-16T02:20:48.854Z,5.90
2022-11-16T02:23:49.695Z,5.90
2022-11-16T02:26:47.794Z,5.90
2022-11-16T02:29:21.064Z,5.90
2022-11-16T02:32:00.613Z,5.90
2022-11-16T02:34:38.864Z,6.10
2022-11-16T02:37:07.894Z,6.10
2022-11-16T02:39:36.918Z,6.10
2022-11-16T02:42:11.016Z,6.00
2022-11-16T02:44:43.882Z,6.10
2022-11-16T02:47:23.089Z,6.00
2022-11-16T02:49:56.253Z,6.00
2022-11-16T02:52:25.389Z,5.90
2022-11-16T02:54:52.511Z,6.00
2022-11-16T02:57:57.526Z,6.10
2022-11-16T03:00:31.526Z,6.00
2022-11-16T03:03:13.906Z,6.00
2022-11-16T03:05:50.360Z,6.00
2022-11-16T03:08:24.275Z,6.10
2022-11-16T03:11:14.423Z,6.20
2022-11-16T03:13:43.243Z,6.10
2022-11-16T03:16:19.977Z,6.10
2022-11-16T03:18:50.201Z,6.10
2022-11-16T03:21:32.587Z,6.10
2022-11-16T03:24:00.572Z,6.10
2022-11-16T03:26:38.339Z,6.10
2022-11-16T03:29:26.144Z,6.00
2022-11-16T03:31:58.712Z,6.10
2022-11-16T03:34:32.971Z,6.20
2022-11-16T03:37:01.467Z,6.10
2022-11-16T03:39:35.845Z,6.00
2022-11-16T03:42:06.831Z,6.00
2022-11-16T03:44:35.517Z,5.90
2022-11-16T03:47:02.568Z,5.90
2022-11-16T03:49:32.837Z,6.00
2022-11-16T03:52:00.011Z,6.00
2022-11-16T03:54:30.097Z,6.00
2022-11-16T03:56:57.647Z,6.00
2022-11-16T03:59:24.992Z,6.00
2022-11-16T04:01:52.759Z,6.10
2022-11-16T04:04:38.601Z,6.10
2022-11-16T04:07:24.047Z,6.10
2022-11-16T04:10:10.192Z,6.10
2022-11-16T04:12:59.283Z,6.00
2022-11-16T04:15:45.188Z,6.00
2022-11-16T04:18:31.248Z,6.00
2022-11-16T04:21:17.768Z,6.10
2022-11-16T04:24:04.477Z,6.10
2022-11-16T04:26:50.964Z,6.00
2022-11-16T04:29:18.845Z,5.90
2022-11-16T04:32:05.329Z,5.90
2022-11-16T04:34:51.036Z,6.00
2022-11-16T04:37:37.901Z,6.00
2022-11-16T04:40:06.017Z,5.90
2022-11-16T04:42:33.390Z,5.90
2022-11-16T04:45:19.009Z,6.00
2022-11-16T04:47:49.719Z,6.00
2022-11-16T04:50:18.131Z,5.90
2022-11-16T04:52:45.735Z,5.90
2022-11-16T04:55:13.301Z,5.90
2022-11-16T04:57:40.776Z,6.00
2022-11-16T05:00:08.583Z,6.00
2022-11-16T05:02:35.984Z,6.00
2022-11-16T05:05:03.305Z,6.00
2022-11-16T05:07:30.891Z,6.00
2022-11-16T05:09:58.014Z,6.10
2022-11-16T05:12:27.279Z,6.00
2022-11-16T05:14:57.831Z,6.10
2022-11-16T05:17:27.071Z,6.10
2022-11-16T05:20:13.048Z,6.20
2022-11-16T05:22:40.477Z,6.10
2022-11-16T05:25:08.786Z,6.00
2022-11-16T05:27:36.563Z,5.90
2022-11-16T05:30:05.689Z,6.00
2022-11-16T05:32:33.105Z,5.90
2022-11-16T05:35:00.248Z,5.90
2022-11-16T05:37:27.618Z,6.00
2022-11-16T05:39:56.912Z,5.90
2022-11-16T05:42:24.906Z,5.90
2022-11-16T05:44:51.983Z,6.00
2022-11-16T05:47:19.388Z,5.90
2022-11-16T05:49:46.706Z,5.90
2022-11-16T05:52:14.120Z,5.90
2022-11-16T05:54:41.254Z,5.90
2022-11-16T05:57:08.650Z,5.90
2022-11-16T05:59:36.151Z,5.90
2022-11-16T06:02:04.883Z,6.00
2022-11-16T06:04:33.089Z,6.00
2022-11-16T06:07:03.179Z,6.00
2022-11-16T06:09:30.444Z,5.90
2022-11-16T06:11:57.866Z,5.90
2022-11-16T06:14:24.958Z,5.90
2022-11-16T06:16:52.372Z,5.90
2022-11-16T06:19:20.664Z,5.90
2022-11-16T06:21:48.340Z,5.90
2022-11-16T06:24:15.474Z,6.00
2022-11-16T06:26:43.019Z,6.00
2022-11-16T06:29:10.481Z,5.90
2022-11-16T06:31:38.054Z,6.00
2022-11-16T06:34:05.127Z,6.00
2022-11-16T06:36:32.575Z,6.00
2022-11-16T06:39:01.329Z,5.90
2022-11-16T06:41:28.946Z,5.90
2022-11-16T06:43:56.388Z,5.90
2022-11-16T06:46:24.710Z,6.00
2022-11-16T06:48:51.998Z,6.00
2022-11-16T06:51:20.089Z,6.10
2022-11-16T06:53:47.216Z,6.10
2022-11-16T06:56:16.396Z,6.10
2022-11-16T06:58:43.563Z,6.10
2022-11-16T07:01:12.280Z,6.00
2022-11-16T07:03:40.180Z,6.00
2022-11-16T07:06:13.239Z,6.00
2022-11-16T07:08:40.957Z,6.10
2022-11-16T07:11:10.127Z,6.20
2022-11-16T07:13:38.616Z,6.20
2022-11-16T07:16:08.046Z,6.20
2022-11-16T07:18:37.315Z,6.30
2022-11-16T07:21:12.491Z,6.30
2022-11-16T07:23:40.451Z,6.30
2022-11-16T07:26:09.158Z,6.40
2022-11-16T07:28:36.880Z,6.30
2022-11-16T07:31:10.906Z,6.40
2022-11-16T07:33:38.662Z,6.40
2022-11-16T07:36:12.299Z,6.30
2022-11-16T07:38:39.811Z,6.20
2022-11-16T07:41:09.941Z,6.20
2022-11-16T07:43:37.658Z,6.20
2022-11-16T07:48:58.554Z,6.20
2022-11-16T07:51:26.125Z,6.20
2022-11-16T07:53:56.018Z,6.20
2022-11-16T07:56:24.484Z,6.20
2022-11-16T07:58:52.003Z,6.20
2022-11-16T08:01:19.958Z,6.20
2022-11-16T08:03:48.588Z,6.20
2022-11-16T08:06:24.606Z,6.20
2022-11-16T08:08:58.036Z,6.20
2022-11-16T08:11:26.508Z,6.20
2022-11-16T08:13:53.662Z,6.30
2022-11-16T08:16:29.957Z,6.20
2022-11-16T08:18:56.995Z,6.20
2022-11-16T08:21:24.658Z,6.30
2022-11-16T08:23:57.825Z,6.20
2022-11-16T08:26:26.163Z,6.20
2022-11-16T08:28:54.030Z,6.20
2022-11-16T08:31:27.199Z,6.20
2022-11-16T08:33:54.893Z,6.20
2022-11-16T08:36:22.763Z,6.20
2022-11-16T08:38:51.422Z,6.20
2022-11-16T08:41:20.518Z,6.20
2022-11-16T08:43:50.504Z,6.20
2022-11-16T08:46:18.322Z,6.20
2022-11-16T08:48:46.391Z,6.10
2022-11-16T08:51:18.527Z,6.10
2022-11-16T08:53:48.389Z,6.20
2022-11-16T08:56:18.243Z,6.10
2022-11-16T08:58:51.484Z,6.20
2022-11-16T09:01:23.300Z,6.40
2022-11-16T09:03:53.026Z,6.20
2022-11-16T09:06:21.138Z,6.30
2022-11-16T09:08:48.760Z,6.30
2022-11-16T09:11:19.728Z,6.30
2022-11-16T09:13:49.830Z,6.30
2022-11-16T09:16:20.980Z,6.40
2022-11-16T09:18:50.454Z,6.40
2022-11-16T09:21:23.519Z,6.50
2022-11-16T09:23:51.479Z,6.50
2022-11-16T09:26:21.621Z,6.40
2022-11-16T09:29:01.070Z,6.40
2022-11-16T09:31:34.665Z,6.30
2022-11-16T09:34:02.947Z,6.30
2022-11-16T09:36:31.998Z,6.40
2022-11-16T09:41:57.298Z,6.50
2022-11-16T09:44:31.400Z,6.50
2022-11-16T09:47:00.789Z,6.50
2022-11-16T09:49:43.728Z,6.50
2022-11-16T09:52:28.510Z,6.50
2022-11-16T09:54:58.216Z,6.50
2022-11-16T09:57:32.783Z,6.50
2022-11-16T10:00:04.589Z,6.50
2022-11-16T10:02:41.807Z,6.50
2022-11-16T10:05:10.787Z,6.70
2022-11-16T10:07:49.184Z,6.70
2022-11-16T10:10:28.405Z,6.80
2022-11-16T10:13:17.501Z,6.80
2022-11-16T10:16:06.230Z,6.80
2022-11-16T10:18:39.632Z,6.80
2022-11-16T10:21:33.117Z,6.70
2022-11-16T10:24:06.443Z,6.70
2022-11-16T10:26:59.535Z,6.70
2022-11-16T10:29:52.205Z,6.80
2022-11-16T10:32:34.362Z,6.70
2022-11-16T10:35:11.039Z,6.70
2022-11-16T10:37:50.793Z,6.70
2022-11-16T10:40:29.339Z,6.80
2022-11-16T10:43:01.324Z,6.80
2022-11-16T10:45:44.735Z,6.80
2022-11-16T10:48:17.093Z,6.80
2022-11-16T10:50:47.121Z,6.80
2022-11-16T10:53:40.808Z,6.90
2022-11-16T10:56:16.136Z,6.90
2022-11-16T10:58:55.137Z,7.00
2022-11-16T11:01:28.929Z,7.00
2022-11-16T11:03:56.929Z,7.00
2022-11-16T11:06:26.690Z,7.00
2022-11-16T11:08:53.877Z,7.00
2022-11-16T11:11:43.080Z,7.00
2022-11-16T11:14:16.893Z,7.00
2022-11-16T11:16:44.278Z,7.00
2022-11-16T11:19:37.965Z,7.00
2022-11-16T11:22:05.594Z,6.90
2022-11-16T11:24:48.260Z,6.90
2022-11-16T11:27:27.301Z,6.80
2022-11-16T11:29:58.731Z,6.80
2022-11-16T11:32:33.052Z,6.80
2022-11-16T11:35:01.183Z,6.80
2022-11-16T11:37:35.990Z,6.80
2022-11-16T11:40:23.806Z,6.70
2022-11-16T11:43:01.974Z,6.70
2022-11-16T11:45:51.720Z,6.70
2022-11-16T11:48:36.801Z,6.70
2022-11-16T11:51:42.824Z,6.70
2022-11-16T11:54:33.065Z,6.80
2022-11-16T11:57:04.098Z,6.80
2022-11-16T11:59:34.103Z,6.90
2022-11-16T12:02:35.626Z,7.00
2022-11-16T12:05:24.712Z,7.00
2022-11-16T12:08:17.946Z,6.90
2022-11-16T12:10:55.932Z,6.90
2022-11-16T12:13:54.813Z,6.80
2022-11-16T12:16:39.293Z,6.70
2022-11-16T12:19:18.189Z,6.80
2022-11-16T12:21:55.064Z,6.80
2022-11-16T12:25:04.688Z,6.80
2022-11-16T12:28:11.520Z,6.80
2022-11-16T12:30:48.842Z,6.60
2022-11-16T12:33:28.497Z,6.40
2022-11-16T12:36:07.058Z,6.00
2022-11-16T12:39:22.254Z,5.60
2022-11-16T12:42:14.072Z,5.30
2022-11-16T12:44:47.781Z,5.20
2022-11-16T12:47:43.167Z,5.00
2022-11-16T12:50:19.332Z,4.90
2022-11-16T12:53:07.332Z,4.80
2022-11-16T12:55:59.468Z,4.90
2022-11-16T12:59:06.651Z,4.80
2022-11-16T13:01:40.385Z,4.80
2022-11-16T13:04:22.514Z,4.60
2022-11-16T13:06:57.720Z,4.60
2022-11-16T13:09:36.796Z,4.50
2022-11-16T13:12:14.252Z,4.40
2022-11-16T13:14:46.774Z,4.50
2022-11-16T13:17:29.173Z,4.60
2022-11-16T13:20:15.396Z,4.60
2022-11-16T13:22:54.106Z,4.50
2022-11-16T13:25:56.597Z,4.40
2022-11-16T13:29:11.762Z,4.40
2022-11-16T13:31:51.330Z,4.50
2022-11-16T13:34:35.117Z,4.40
2022-11-16T13:37:38.364Z,4.40
2022-11-16T13:40:05.793Z,4.30
2022-11-16T13:42:43.876Z,4.20
2022-11-16T13:45:21.989Z,4.20
2022-11-16T13:47:58.849Z,4.20
2022-11-16T13:50:38.204Z,4.10
2022-11-16T13:54:04.086Z,4.10
2022-11-16T13:56:03.442Z,4.20
2022-11-16T13:58:32.283Z,4.10
2022-11-16T14:01:01.789Z,4.10
2022-11-16T14:03:38.558Z,4.10
2022-11-16T14:06:19.326Z,4.00
2022-11-16T14:08:53.471Z,3.90
2022-11-16T14:11:32.116Z,3.80
2022-11-16T14:14:02.149Z,3.80
2022-11-16T14:16:29.534Z,3.70
2022-11-16T14:19:00.456Z,3.70
2022-11-16T14:21:54.293Z,3.80
2022-11-16T14:24:44.535Z,3.80
2022-11-16T14:27:43.242Z,3.80
2022-11-16T14:30:25.134Z,3.70
2022-11-16T14:32:56.222Z,3.50
2022-11-16T14:35:37.304Z,3.50
2022-11-16T14:38:23.385Z,3.50
2022-11-16T14:40:58.892Z,3.50
2022-11-16T14:43:42.766Z,3.50
2022-11-16T14:46:26.277Z,3.60
2022-11-16T14:48:57.984Z,3.60
2022-11-16T14:51:35.194Z,3.60
2022-11-16T14:54:25.909Z,3.60
2022-11-16T14:57:20.421Z,3.60
2022-11-16T14:59:48.563Z,3.60
2022-11-16T15:02:25.405Z,3.50
2022-11-16T15:04:54.037Z,3.50
2022-11-16T15:07:23.714Z,3.50
2022-11-16T15:09:55.521Z,3.50
2022-11-16T15:12:42.123Z,3.50
2022-11-16T15:15:12.501Z,3.50
2022-11-16T15:17:45.356Z,3.60
2022-11-16T15:20:22.390Z,3.60
2022-11-16T15:22:57.202Z,3.60
2022-11-16T15:25:32.134Z,3.50
2022-11-16T15:28:26.993Z,3.50
2022-11-16T15:31:04.496Z,3.50
2022-11-16T15:33:36.898Z,3.50
2022-11-16T15:36:31.287Z,3.50
2022-11-16T15:39:00.584Z,3.40
2022-11-16T15:41:29.751Z,3.50
2022-11-16T15:44:16.931Z,3.50
2022-11-16T15:46:53.254Z,3.50
2022-11-16T15:49:31.841Z,3.50
2022-11-16T15:52:00.570Z,3.60
2022-11-16T15:54:31.146Z,3.60
2022-11-16T15:57:08.133Z,3.60
2022-11-16T15:59:37.241Z,3.60
2022-11-16T16:02:05.164Z,3.60
2022-11-16T16:04:33.117Z,3.60
2022-11-16T16:07:01.313Z,3.60
2022-11-16T16:09:38.306Z,3.60
2022-11-16T16:12:20.969Z,3.60
2022-11-16T16:14:50.079Z,3.70
2022-11-16T16:17:31.388Z,3.70
2022-11-16T16:20:03.944Z,3.60
2022-11-16T16:22:35.938Z,3.60
2022-11-16T16:25:05.710Z,3.60
2022-11-16T16:27:40.009Z,3.50
2022-11-16T16:30:12.825Z,3.70
2022-11-16T16:32:40.413Z,3.60
2022-11-16T16:35:19.015Z,3.60
2022-11-16T16:37:50.209Z,3.60
2022-11-16T16:40:18.764Z,3.60
2022-11-16T16:42:49.382Z,3.60
2022-11-16T16:45:27.271Z,3.70
2022-11-16T16:47:54.645Z,3.70
2022-11-16T16:50:21.900Z,3.70
2022-11-16T16:52:49.539Z,3.60
2022-11-16T16:55:16.729Z,3.70
2022-11-16T16:57:44.653Z,3.70
2022-11-16T17:00:12.155Z,3.70
2022-11-16T17:02:39.743Z,3.70
2022-11-16T17:05:07.160Z,3.70
2022-11-16T17:07:34.672Z,3.80
2022-11-16T17:10:02.110Z,3.80
2022-11-16T17:12:32.714Z,3.80
2022-11-16T17:14:59.799Z,3.80
2022-11-16T17:17:30.489Z,3.80
2022-11-16T17:19:57.621Z,3.80
2022-11-16T17:22:25.183Z,3.90
2022-11-16T17:24:52.546Z,3.90
2022-11-16T17:27:20.015Z,3.90
2022-11-16T17:29:47.449Z,3.80
2022-11-16T17:32:15.765Z,3.80
2022-11-16T17:34:43.091Z,3.80
2022-11-16T17:37:10.695Z,3.80
2022-11-16T17:39:37.871Z,3.80
2022-11-16T17:42:05.645Z,3.80
2022-11-16T17:44:33.250Z,3.90
2022-11-16T17:47:00.810Z,3.80
2022-11-16T17:49:27.969Z,3.70
2022-11-16T17:51:55.339Z,3.70
2022-11-16T17:54:22.491Z,3.60
2022-11-16T17:56:50.650Z,3.70
2022-11-16T17:59:18.826Z,3.60
2022-11-16T18:01:46.560Z,3.60
2022-11-16T18:04:13.650Z,3.60
2022-11-16T18:06:41.247Z,3.60
2022-11-16T18:09:08.805Z,3.60
2022-11-16T18:11:36.826Z,3.50
2022-11-16T18:14:05.784Z,3.60
2022-11-16T18:16:33.886Z,3.60
2022-11-16T18:19:03.934Z,3.60
2022-11-16T18:21:37.964Z,3.60
2022-11-16T18:24:05.340Z,3.60
2022-11-16T18:26:33.864Z,3.60
2022-11-16T18:29:00.999Z,3.70
2022-11-16T18:31:29.825Z,3.70
2022-11-16T18:33:57.157Z,3.70
2022-11-16T18:36:24.689Z,3.70
2022-11-16T18:38:52.938Z,3.70
2022-11-16T18:41:23.147Z,3.70
2022-11-16T18:43:55.576Z,3.70
2022-11-16T18:46:28.817Z,3.70
2022-11-16T18:48:56.741Z,3.80
2022-11-16T18:51:26.099Z,3.70
2022-11-16T18:53:53.658Z,3.70
2022-11-16T18:56:21.823Z,3.70
2022-11-16T18:58:51.525Z,3.60
2022-11-16T19:01:22.621Z,3.60
2022-11-16T19:03:50.712Z,3.60
2022-11-16T19:06:18.702Z,3.70
2022-11-16T19:08:53.691Z,3.60
2022-11-16T19:11:23.884Z,3.70
2022-11-16T19:13:56.059Z,3.60
2022-11-16T19:16:25.017Z,3.60
2022-11-16T19:18:52.412Z,3.60
2022-11-16T19:21:22.129Z,3.60
2022-11-16T19:23:52.263Z,3.60
2022-11-16T19:26:22.247Z,3.70
2022-11-16T19:28:53.384Z,3.70
2022-11-16T19:31:27.300Z,3.70
2022-11-16T19:33:59.764Z,3.70
2022-11-16T19:36:28.866Z,3.80
2022-11-16T19:38:56.319Z,3.80
2022-11-16T19:41:25.348Z,3.70
2022-11-16T19:43:57.272Z,3.70
2022-11-16T19:46:28.804Z,3.70
2022-11-16T19:48:56.592Z,3.80
2022-11-16T19:51:33.056Z,3.80
2022-11-16T19:54:01.411Z,3.80
2022-11-16T19:56:29.339Z,3.70
2022-11-16T19:58:56.647Z,3.80
2022-11-16T20:01:27.840Z,3.80
2022-11-16T20:03:58.376Z,3.80
2022-11-16T20:06:34.675Z,3.80
2022-11-16T20:09:09.034Z,3.90
2022-11-16T20:11:39.190Z,3.80
2022-11-16T20:14:09.596Z,3.80
2022-11-16T20:16:41.299Z,3.80
2022-11-16T20:19:10.405Z,3.80
2022-11-16T20:21:43.079Z,3.80
2022-11-16T20:24:15.172Z,3.90
2022-11-16T20:26:45.047Z,3.90
2022-11-16T20:29:16.152Z,3.80
2022-11-16T20:31:45.440Z,3.90
2022-11-16T20:34:15.235Z,3.90
2022-11-16T20:36:45.124Z,3.90
2022-11-16T20:39:14.167Z,3.90
2022-11-16T20:41:43.904Z,3.90
2022-11-16T20:44:16.695Z,3.90
2022-11-16T20:46:45.246Z,4.00
2022-11-16T20:49:12.583Z,4.00
2022-11-16T20:51:40.401Z,3.90
2022-11-16T20:54:07.653Z,4.00
2022-11-16T20:56:35.217Z,3.90
2022-11-16T20:59:02.316Z,3.90
2022-11-16T21:01:31.937Z,4.00
2022-11-16T21:04:01.543Z,4.00
2022-11-16T21:06:29.911Z,3.90
2022-11-16T21:08:57.748Z,4.00
2022-11-16T21:11:29.573Z,4.00
2022-11-16T21:14:18.010Z,4.00
2022-11-16T21:16:46.414Z,4.00
2022-11-16T21:19:14.315Z,4.10
2022-11-16T21:21:41.732Z,4.00
2022-11-16T21:24:09.734Z,4.00
2022-11-16T21:26:37.342Z,4.00
2022-11-16T21:29:05.180Z,4.00
2022-11-16T21:31:34.859Z,4.00
2022-11-16T21:34:01.962Z,4.00
2022-11-16T21:36:31.381Z,3.90
2022-11-16T21:38:59.199Z,4.00
2022-11-16T21:41:28.228Z,4.00
2022-11-16T21:43:56.230Z,4.00
2022-11-16T21:46:25.269Z,4.00
2022-11-16T21:48:54.280Z,4.00
2022-11-16T21:51:25.085Z,4.00
2022-11-16T21:53:53.177Z,4.00
2022-11-16T21:56:22.780Z,4.00
2022-11-16T21:58:50.623Z,4.00
2022-11-16T22:01:18.444Z,4.00
2022-11-16T22:03:46.646Z,4.00
2022-11-16T22:06:34.552Z,4.00
2022-11-16T22:09:03.320Z,4.00
2022-11-16T22:11:30.724Z,4.00
2022-11-16T22:13:57.815Z,4.00
2022-11-16T22:16:24.882Z,4.00
2022-11-16T22:18:52.123Z,4.00
2022-11-16T22:21:19.178Z,4.00
2022-11-16T22:23:46.471Z,4.00
2022-11-16T22:26:15.441Z,4.00
2022-11-16T22:28:42.980Z,4.10
2022-11-16T22:31:12.509Z,4.10
2022-11-16T22:33:40.776Z,4.00
2022-11-16T22:36:10.365Z,4.10
2022-11-16T22:38:39.060Z,4.10
2022-11-16T22:41:06.329Z,4.10
2022-11-16T22:43:34.121Z,4.00
2022-11-16T22:46:04.379Z,4.10
2022-11-16T22:48:36.649Z,4.10
2022-11-16T22:51:26.875Z,4.10
2022-11-16T22:53:59.760Z,4.00
2022-11-16T22:56:30.534Z,4.00
2022-11-16T22:58:58.650Z,4.00
2022-11-16T23:01:25.702Z,4.00
2022-11-16T23:03:53.262Z,3.90
2022-11-16T23:06:20.653Z,3.80
2022-11-16T23:08:48.260Z,3.90
2022-11-16T23:11:37.742Z,3.90
2022-11-16T23:14:25.676Z,3.90
2022-11-16T23:16:53.297Z,3.90
2022-11-16T23:19:40.157Z,3.90
2022-11-16T23:22:30.687Z,3.90
2022-11-16T23:25:17.363Z,3.80
2022-11-16T23:27:44.528Z,3.80
2022-11-16T23:30:13.552Z,3.80
2022-11-16T23:32:41.828Z,3.80
2022-11-16T23:35:11.754Z,3.80
2022-11-16T23:38:01.390Z,3.90
2022-11-16T23:40:39.725Z,3.90
2022-11-16T23:43:28.584Z,3.90
2022-11-16T23:45:56.191Z,3.90
2022-11-16T23:48:23.394Z,3.90
2022-11-16T23:50:51.072Z,3.90
2022-11-16T23:53:18.519Z,3.80
2022-11-16T23:55:47.630Z,3.80
2022-11-16T23:58:15.535Z,3.80
